createdAt,value
2019-01-17T00:00:32.419Z,25.63
2019-01-17T00:03:11.334Z,25.93
2019-01-17T00:05:47.422Z,23.17
2019-01-17T00:08:26.353Z,21.30
2019-01-17T00:10:57.404Z,28.43
2019-01-17T00:13:27.506Z,25.40
2019-01-17T00:15:57.697Z,24.57
2019-01-17T00:18:27.849Z,23.97
2019-01-17T00:21:01.639Z,23.27
2019-01-17T00:23:40.643Z,39.30
2019-01-17T00:26:19.510Z,49.50
2019-01-17T00:28:52.359Z,39.13
2019-01-17T00:31:37.324Z,36.87
2019-01-17T00:34:07.737Z,27.10
2019-01-17T00:36:40.481Z,22.83
2019-01-17T00:39:22.846Z,30.27
2019-01-17T00:41:53.049Z,25.17
2019-01-17T00:44:25.750Z,26.47
2019-01-17T00:46:56.413Z,27.43
2019-01-17T00:49:29.428Z,24.37
2019-01-17T00:52:08.784Z,25.93
2019-01-17T00:54:48.219Z,26.33
2019-01-17T00:57:30.206Z,22.73
2019-01-17T01:00:12.324Z,27.53
2019-01-17T01:02:57.761Z,29.60
2019-01-17T01:05:27.925Z,28.97
2019-01-17T01:08:10.297Z,25.50
2019-01-17T01:10:55.325Z,25.57
2019-01-17T01:13:25.467Z,25.97
2019-01-17T01:16:06.915Z,29.50
2019-01-17T01:18:43.142Z,27.77
2019-01-17T01:21:16.223Z,26.47
2019-01-17T01:24:02.379Z,24.20
2019-01-17T01:26:41.203Z,24.53
2019-01-17T01:29:19.988Z,24.10
2019-01-17T01:31:52.885Z,25.13
2019-01-17T01:34:35.246Z,23.47
2019-01-17T01:37:14.765Z,27.47
2019-01-17T01:39:44.957Z,24.40
2019-01-17T01:42:25.134Z,27.40
2019-01-17T01:45:04.590Z,22.67
2019-01-17T01:47:37.450Z,25.67
2019-01-17T01:50:08.386Z,27.53
2019-01-17T01:52:44.257Z,24.83
2019-01-17T01:55:12.842Z,25.67
2019-01-17T01:57:41.297Z,26.50
2019-01-17T02:00:11.819Z,25.87
2019-01-17T02:02:40.272Z,30.40
2019-01-17T02:05:08.950Z,26.37
2019-01-17T02:07:37.661Z,28.43
2019-01-17T02:10:09.268Z,32.87
2019-01-17T02:12:37.784Z,23.70
2019-01-17T02:15:07.321Z,28.97
2019-01-17T02:17:35.919Z,35.63
2019-01-17T02:20:07.184Z,26.20
2019-01-17T02:22:35.734Z,22.80
2019-01-17T02:25:08.580Z,27.90
2019-01-17T02:27:37.099Z,24.60
2019-01-17T02:30:09.020Z,30.23
2019-01-17T02:32:37.534Z,24.17
2019-01-17T02:35:07.227Z,26.93
2019-01-17T02:37:35.787Z,26.33
2019-01-17T02:40:07.369Z,24.87
2019-01-17T02:42:35.960Z,25.07
2019-01-17T02:45:07.259Z,25.27
2019-01-17T02:47:35.847Z,24.50
2019-01-17T02:50:06.439Z,24.27
2019-01-17T02:52:34.947Z,23.47
2019-01-17T02:55:04.235Z,25.97
2019-01-17T02:57:32.686Z,28.90
2019-01-17T03:00:01.270Z,22.90
2019-01-17T03:02:29.857Z,22.37
2019-01-17T03:04:58.315Z,23.47
2019-01-17T03:07:26.795Z,24.47
2019-01-17T03:09:55.389Z,23.47
2019-01-17T03:12:23.833Z,23.37
2019-01-17T03:14:52.389Z,25.53
2019-01-17T03:17:20.977Z,25.53
2019-01-17T03:19:49.434Z,22.57
2019-01-17T03:22:17.914Z,23.60
2019-01-17T03:24:46.367Z,24.77
2019-01-17T03:27:14.821Z,21.50
2019-01-17T03:29:43.302Z,22.43
2019-01-17T03:32:11.822Z,25.03
2019-01-17T03:34:40.337Z,23.33
2019-01-17T03:37:09.027Z,23.20
2019-01-17T03:39:37.546Z,20.13
2019-01-17T03:42:06.118Z,24.77
2019-01-17T03:44:34.748Z,24.80
2019-01-17T03:47:03.695Z,23.57
2019-01-17T03:49:32.219Z,24.13
2019-01-17T03:52:00.728Z,29.97
2019-01-17T03:54:29.324Z,20.00
2019-01-17T03:56:57.843Z,23.23
2019-01-17T03:59:26.427Z,25.23
2019-01-17T04:01:55.013Z,28.77
2019-01-17T04:04:23.534Z,27.27
2019-01-17T04:06:52.010Z,26.57
2019-01-17T04:09:20.535Z,27.00
2019-01-17T04:11:48.980Z,23.83
2019-01-17T04:14:17.521Z,37.97
2019-01-17T04:16:46.105Z,47.87
2019-01-17T04:19:14.553Z,56.33
2019-01-17T04:21:43.030Z,46.13
2019-01-17T04:24:11.553Z,32.33
2019-01-17T04:26:40.001Z,24.23
2019-01-17T04:29:08.489Z,31.57
2019-01-17T04:31:37.069Z,31.10
2019-01-17T04:34:05.597Z,28.03
2019-01-17T04:36:34.141Z,24.80
2019-01-17T04:39:02.665Z,22.63
2019-01-17T04:41:31.186Z,25.57
2019-01-17T04:43:59.659Z,23.20
2019-01-17T04:46:28.181Z,23.10
2019-01-17T04:48:56.918Z,21.67
2019-01-17T04:51:25.533Z,18.30
2019-01-17T04:53:53.989Z,26.27
2019-01-17T04:56:22.505Z,26.17
2019-01-17T04:58:50.993Z,22.30
2019-01-17T05:01:19.605Z,17.43
2019-01-17T05:03:48.185Z,25.70
2019-01-17T05:06:16.734Z,22.47
2019-01-17T05:08:45.249Z,21.77
2019-01-17T05:11:14.268Z,20.87
2019-01-17T05:13:42.873Z,19.33
2019-01-17T05:16:11.394Z,18.13
2019-01-17T05:18:39.906Z,23.53
2019-01-17T05:21:08.453Z,22.37
2019-01-17T05:23:36.970Z,21.53
2019-01-17T05:26:05.557Z,23.10
2019-01-17T05:28:34.058Z,19.83
2019-01-17T05:31:02.572Z,18.80
2019-01-17T05:33:31.085Z,18.83
2019-01-17T05:35:59.628Z,20.93
2019-01-17T05:38:28.142Z,18.20
2019-01-17T05:40:57.259Z,22.97
2019-01-17T05:43:25.801Z,18.23
2019-01-17T05:45:54.259Z,22.50
2019-01-17T05:48:22.768Z,18.60
2019-01-17T05:50:51.757Z,21.20
2019-01-17T05:53:20.214Z,23.03
2019-01-17T05:55:48.801Z,18.40
2019-01-17T05:58:17.285Z,24.37
2019-01-17T06:00:45.809Z,21.30
2019-01-17T06:03:14.257Z,18.80
2019-01-17T06:05:42.732Z,20.37
2019-01-17T06:08:11.325Z,20.07
2019-01-17T06:10:39.911Z,21.63
2019-01-17T06:13:09.002Z,21.57
2019-01-17T06:15:38.114Z,20.57
2019-01-17T06:18:06.564Z,16.10
2019-01-17T06:20:35.044Z,20.90
2019-01-17T06:23:03.493Z,17.60
2019-01-17T06:25:32.079Z,19.50
2019-01-17T06:28:00.566Z,18.33
2019-01-17T06:30:29.009Z,23.50
2019-01-17T06:32:57.525Z,17.27
2019-01-17T06:35:26.070Z,19.43
2019-01-17T06:37:54.593Z,19.20
2019-01-17T06:40:25.962Z,21.67
2019-01-17T06:42:54.480Z,20.70
2019-01-17T06:45:22.929Z,28.57
2019-01-17T06:47:52.448Z,29.23
2019-01-17T06:50:20.965Z,27.40
2019-01-17T06:52:49.676Z,27.07
2019-01-17T06:55:18.233Z,27.23
2019-01-17T06:57:46.819Z,18.40
2019-01-17T07:00:17.221Z,20.47
2019-01-17T07:02:45.836Z,20.57
2019-01-17T07:05:15.221Z,20.43
2019-01-17T07:07:43.813Z,19.40
2019-01-17T07:10:14.830Z,20.57
2019-01-17T07:12:43.345Z,23.83
2019-01-17T07:15:12.204Z,22.47
2019-01-17T07:17:40.745Z,21.73
2019-01-17T07:20:12.304Z,22.73
2019-01-17T07:22:40.893Z,22.80
2019-01-17T07:25:10.728Z,23.07
2019-01-17T07:27:39.326Z,19.13
2019-01-17T07:30:22.219Z,23.80
2019-01-17T07:32:50.815Z,21.20
2019-01-17T07:35:19.406Z,29.00
2019-01-17T07:37:47.969Z,21.17
2019-01-17T07:40:16.560Z,18.73
2019-01-17T07:42:45.083Z,21.37
2019-01-17T07:45:19.753Z,25.53
2019-01-17T07:47:48.214Z,21.30
2019-01-17T07:50:16.800Z,19.70
2019-01-17T07:52:45.516Z,23.93
2019-01-17T07:55:14.118Z,22.83
2019-01-17T07:57:42.710Z,23.73
2019-01-17T08:00:14.397Z,21.97
2019-01-17T08:02:42.985Z,21.53
2019-01-17T08:05:11.584Z,23.23
2019-01-17T08:07:40.273Z,21.20
2019-01-17T08:10:14.563Z,23.90
2019-01-17T08:12:43.252Z,20.00
2019-01-17T08:15:13.769Z,21.97
2019-01-17T08:17:42.354Z,23.10
2019-01-17T08:20:13.913Z,19.67
2019-01-17T08:22:42.465Z,22.20
2019-01-17T08:25:12.253Z,18.40
2019-01-17T08:27:40.946Z,22.80
2019-01-17T08:30:12.441Z,21.63
2019-01-17T08:32:40.887Z,18.53
2019-01-17T08:35:10.775Z,24.70
2019-01-17T08:37:39.336Z,20.47
2019-01-17T08:40:20.405Z,18.13
2019-01-17T08:42:49.182Z,23.23
2019-01-17T08:45:17.773Z,20.03
2019-01-17T08:47:46.301Z,19.47
2019-01-17T08:50:16.324Z,24.67
2019-01-17T08:52:44.913Z,30.23
2019-01-17T08:55:13.505Z,20.67
2019-01-17T08:57:42.041Z,22.30
2019-01-17T09:00:16.121Z,22.50
2019-01-17T09:02:44.634Z,22.17
2019-01-17T09:05:13.265Z,18.77
2019-01-17T09:07:41.857Z,21.50
2019-01-17T09:10:13.725Z,20.60
2019-01-17T09:12:42.265Z,20.47
2019-01-17T09:15:13.565Z,18.43
2019-01-17T09:17:42.260Z,18.80
2019-01-17T09:20:13.449Z,20.27
2019-01-17T09:22:42.138Z,18.00
2019-01-17T09:25:14.821Z,17.30
2019-01-17T09:27:43.459Z,19.87
2019-01-17T09:30:20.443Z,16.87
2019-01-17T09:32:49.168Z,17.97
2019-01-17T09:35:18.462Z,16.63
2019-01-17T09:37:47.060Z,14.73
2019-01-17T09:40:17.952Z,17.80
2019-01-17T09:42:46.543Z,18.07
2019-01-17T09:45:15.134Z,19.87
2019-01-17T09:47:44.058Z,18.03
2019-01-17T09:50:21.032Z,20.13
2019-01-17T09:52:50.034Z,18.10
2019-01-17T09:55:19.035Z,23.33
2019-01-17T09:57:47.684Z,19.27
2019-01-17T10:00:19.222Z,21.83
2019-01-17T10:02:47.922Z,22.43
2019-01-17T10:05:16.422Z,20.17
2019-01-17T10:07:45.138Z,20.57
2019-01-17T10:10:15.972Z,20.10
2019-01-17T10:12:44.629Z,17.33
2019-01-17T10:15:28.820Z,19.77
2019-01-17T10:18:00.357Z,20.20
2019-01-17T10:20:48.550Z,17.20
2019-01-17T10:23:22.692Z,18.00
2019-01-17T10:25:57.113Z,15.23
2019-01-17T10:28:59.993Z,21.53
2019-01-17T10:31:43.331Z,15.90
2019-01-17T10:34:34.054Z,18.57
2019-01-17T10:37:08.349Z,17.37
2019-01-17T10:39:45.806Z,18.13
2019-01-17T10:42:32.446Z,18.20
2019-01-17T10:45:15.710Z,14.97
2019-01-17T10:48:00.169Z,16.60
2019-01-17T10:50:31.854Z,19.83
2019-01-17T10:53:21.096Z,13.87
2019-01-17T10:56:01.642Z,17.07
2019-01-17T10:58:33.230Z,15.53
2019-01-17T11:01:25.965Z,14.67
2019-01-17T11:04:00.482Z,15.00
2019-01-17T11:06:50.067Z,14.97
2019-01-17T11:09:42.790Z,14.03
2019-01-17T11:12:32.528Z,15.40
2019-01-17T11:15:04.173Z,16.70
2019-01-17T11:17:35.697Z,15.37
2019-01-17T11:20:28.527Z,15.33
2019-01-17T11:23:02.795Z,16.47
2019-01-17T11:25:34.346Z,16.33
2019-01-17T11:28:20.940Z,15.17
2019-01-17T11:30:58.451Z,14.73
2019-01-17T11:33:32.702Z,17.67
2019-01-17T11:36:28.431Z,14.80
2019-01-17T11:39:08.290Z,15.67
2019-01-17T11:42:08.499Z,15.67
2019-01-17T11:45:07.389Z,14.50
2019-01-17T11:47:54.077Z,14.20
2019-01-17T11:50:43.018Z,15.23
2019-01-17T11:53:20.469Z,14.83
2019-01-17T11:56:00.722Z,16.47
2019-01-17T11:58:50.174Z,17.40
2019-01-17T12:01:32.205Z,18.50
2019-01-17T12:04:29.045Z,13.40
2019-01-17T12:06:58.038Z,16.93
2019-01-17T12:09:26.571Z,13.13
2019-01-17T12:11:55.190Z,17.27
2019-01-17T12:14:26.910Z,15.60
2019-01-17T12:16:55.362Z,15.93
2019-01-17T12:19:23.911Z,15.07
2019-01-17T12:21:52.504Z,13.97
2019-01-17T12:24:21.105Z,14.70
2019-01-17T12:26:49.673Z,13.97
2019-01-17T12:29:18.606Z,14.07
2019-01-17T12:31:47.121Z,13.47
2019-01-17T12:34:15.801Z,12.00
2019-01-17T12:36:44.562Z,15.47
2019-01-17T12:39:14.626Z,13.03
2019-01-17T12:41:43.251Z,18.47
2019-01-17T12:44:11.912Z,16.10
2019-01-17T12:46:40.425Z,14.67
2019-01-17T12:49:09.050Z,15.00
2019-01-17T12:51:37.837Z,14.43
2019-01-17T12:54:06.544Z,14.17
2019-01-17T12:56:38.218Z,20.23
2019-01-17T12:59:06.767Z,23.93
2019-01-17T13:01:35.301Z,23.00
2019-01-17T13:04:04.289Z,18.60
2019-01-17T13:06:32.747Z,16.77
2019-01-17T13:09:01.298Z,16.33
2019-01-17T13:11:29.983Z,11.90
2019-01-17T13:13:58.567Z,16.97
2019-01-17T13:16:27.546Z,16.40
2019-01-17T13:18:56.242Z,14.47
2019-01-17T13:21:24.828Z,16.40
2019-01-17T13:23:53.417Z,12.73
2019-01-17T13:26:22.033Z,13.53
2019-01-17T13:28:50.585Z,13.80
2019-01-17T13:31:19.186Z,11.20
2019-01-17T13:33:47.733Z,11.33
2019-01-17T13:36:16.203Z,14.53
2019-01-17T13:38:44.875Z,11.83
2019-01-17T13:41:13.557Z,12.87
2019-01-17T13:43:42.081Z,13.67
2019-01-17T13:46:10.741Z,12.10
2019-01-17T13:48:39.454Z,12.23
2019-01-17T13:51:08.038Z,14.63
2019-01-17T13:53:36.626Z,13.67
2019-01-17T13:56:05.294Z,13.30
2019-01-17T13:58:33.834Z,14.30
2019-01-17T14:01:02.506Z,15.80
2019-01-17T14:03:31.113Z,12.57
2019-01-17T14:05:59.565Z,16.33
2019-01-17T14:08:28.011Z,14.43
2019-01-17T14:10:56.713Z,15.27
2019-01-17T14:13:25.307Z,14.03
2019-01-17T14:15:55.480Z,13.43
2019-01-17T14:18:27.878Z,17.17
2019-01-17T14:20:55.746Z,17.17
2019-01-17T14:23:24.198Z,21.03
2019-01-17T14:25:52.786Z,18.87
2019-01-17T14:28:21.361Z,17.13
2019-01-17T14:30:50.098Z,15.80
2019-01-17T14:33:18.620Z,15.13
2019-01-17T14:35:47.133Z,12.07
2019-01-17T14:38:15.633Z,13.63
2019-01-17T14:40:44.121Z,12.70
2019-01-17T14:43:12.717Z,12.00
2019-01-17T14:45:41.545Z,14.23
2019-01-17T14:48:10.706Z,13.20
2019-01-17T14:50:39.270Z,16.13
2019-01-17T14:53:07.859Z,15.57
2019-01-17T14:55:36.751Z,16.73
2019-01-17T14:58:05.337Z,15.10
2019-01-17T15:00:34.214Z,15.40
2019-01-17T15:03:03.001Z,17.50
2019-01-17T15:05:31.621Z,15.80
2019-01-17T15:08:00.204Z,13.83
2019-01-17T15:10:34.412Z,14.57
2019-01-17T15:13:03.102Z,15.00
2019-01-17T15:15:31.668Z,20.40
2019-01-17T15:18:00.384Z,15.67
2019-01-17T15:20:28.901Z,21.77
2019-01-17T15:22:57.421Z,23.47
2019-01-17T15:25:25.980Z,22.03
2019-01-17T15:27:54.437Z,24.87
2019-01-17T15:30:27.728Z,22.87
2019-01-17T15:32:56.349Z,23.47
2019-01-17T15:35:27.616Z,27.77
2019-01-17T15:37:56.237Z,28.23
2019-01-17T15:40:27.292Z,26.63
2019-01-17T15:42:58.840Z,31.97
2019-01-17T15:45:27.386Z,38.20
2019-01-17T15:47:55.935Z,72.60
2019-01-17T15:50:24.638Z,71.83
2019-01-17T15:52:53.337Z,56.63
2019-01-17T15:55:21.887Z,129.47
2019-01-17T15:57:50.475Z,80.80
2019-01-17T16:00:24.768Z,40.43
2019-01-17T16:02:53.315Z,41.03
2019-01-17T16:05:22.273Z,45.80
2019-01-17T16:07:51.022Z,71.23
2019-01-17T16:10:19.650Z,115.23
2019-01-17T16:12:48.220Z,164.73
2019-01-17T16:15:25.060Z,93.80
2019-01-17T16:17:53.781Z,94.13
2019-01-17T16:20:22.405Z,96.10
2019-01-17T16:22:51.221Z,85.77
2019-01-17T16:25:19.760Z,116.73
2019-01-17T16:27:52.968Z,92.67
2019-01-17T16:30:26.401Z,46.50
2019-01-17T16:32:55.803Z,36.60
2019-01-17T16:35:24.728Z,48.20
2019-01-17T16:37:53.449Z,36.03
2019-01-17T16:40:21.978Z,34.80
2019-01-17T16:42:50.575Z,27.20
2019-01-17T16:45:23.778Z,27.90
2019-01-17T16:47:52.446Z,29.80
2019-01-17T16:50:23.239Z,30.80
2019-01-17T16:52:51.940Z,27.27
2019-01-17T16:55:20.629Z,27.53
2019-01-17T16:57:49.530Z,24.10
2019-01-17T17:00:30.080Z,25.13
2019-01-17T17:02:58.609Z,22.73
2019-01-17T17:05:27.198Z,23.47
2019-01-17T17:07:56.240Z,28.93
2019-01-17T17:10:24.833Z,29.03
2019-01-17T17:12:53.282Z,29.40
2019-01-17T17:15:21.845Z,37.73
2019-01-17T17:17:50.304Z,49.20
2019-01-17T17:20:24.115Z,62.97
2019-01-17T17:22:52.729Z,56.43
2019-01-17T17:25:21.323Z,50.67
2019-01-17T17:27:55.543Z,76.77
2019-01-17T17:30:25.909Z,59.87
2019-01-17T17:32:54.509Z,66.40
2019-01-17T17:35:23.025Z,47.33
2019-01-17T17:37:51.590Z,72.07
2019-01-17T17:40:22.649Z,62.10
2019-01-17T17:42:51.259Z,55.60
2019-01-17T17:45:19.945Z,63.30
2019-01-17T17:47:48.609Z,55.83
2019-01-17T17:50:18.965Z,61.53
2019-01-17T17:52:47.590Z,41.63
2019-01-17T17:55:17.373Z,47.47
2019-01-17T17:57:45.982Z,30.47
2019-01-17T18:00:25.008Z,37.57
2019-01-17T18:02:54.268Z,27.13
2019-01-17T18:05:22.862Z,26.97
2019-01-17T18:07:51.533Z,32.23
2019-01-17T18:10:20.249Z,29.13
2019-01-17T18:12:48.714Z,25.63
2019-01-17T18:15:19.362Z,26.00
2019-01-17T18:17:48.151Z,23.00
2019-01-17T18:20:17.536Z,23.17
2019-01-17T18:22:46.114Z,21.97
2019-01-17T18:25:14.709Z,22.93
2019-01-17T18:27:43.239Z,27.63
2019-01-17T18:30:17.053Z,22.57
2019-01-17T18:32:45.654Z,22.27
2019-01-17T18:35:14.905Z,25.20
2019-01-17T18:37:43.755Z,23.97
2019-01-17T18:40:14.699Z,22.57
2019-01-17T18:42:43.287Z,21.67
2019-01-17T18:45:14.772Z,20.77
2019-01-17T18:47:43.297Z,24.77
2019-01-17T18:50:14.657Z,21.10
2019-01-17T18:52:43.278Z,26.17
2019-01-17T18:55:11.821Z,30.80
2019-01-17T18:57:40.348Z,23.93
2019-01-17T19:00:19.602Z,33.50
2019-01-17T19:02:48.293Z,30.20
2019-01-17T19:05:16.984Z,25.70
2019-01-17T19:07:45.634Z,23.90
2019-01-17T19:10:15.528Z,25.73
2019-01-17T19:12:44.061Z,21.23
2019-01-17T19:15:17.996Z,26.50
2019-01-17T19:17:46.588Z,29.07
2019-01-17T19:20:17.049Z,36.40
2019-01-17T19:22:45.672Z,25.87
2019-01-17T19:25:14.672Z,22.93
2019-01-17T19:27:43.258Z,24.50
2019-01-17T19:30:17.500Z,26.70
2019-01-17T19:32:46.102Z,26.63
2019-01-17T19:35:14.750Z,25.70
2019-01-17T19:37:43.662Z,36.57
2019-01-17T19:40:16.844Z,45.33
2019-01-17T19:42:45.446Z,43.20
2019-01-17T19:45:15.577Z,30.03
2019-01-17T19:47:44.273Z,31.07
2019-01-17T19:50:21.566Z,31.10
2019-01-17T19:52:50.091Z,25.03
2019-01-17T19:55:18.783Z,23.67
2019-01-17T19:57:47.384Z,23.10
2019-01-17T20:00:18.379Z,24.63
2019-01-17T20:02:47.149Z,18.50
2019-01-17T20:05:20.619Z,17.10
2019-01-17T20:07:49.415Z,16.27
2019-01-17T20:10:29.410Z,14.80
2019-01-17T20:12:58.130Z,15.80
2019-01-17T20:15:26.797Z,16.67
2019-01-17T20:17:55.727Z,17.87
2019-01-17T20:20:24.345Z,19.13
2019-01-17T20:22:53.322Z,24.97
2019-01-17T20:25:21.953Z,17.50
2019-01-17T20:27:51.272Z,18.00
2019-01-17T20:30:31.503Z,15.03
2019-01-17T20:33:01.491Z,13.87
2019-01-17T20:35:30.611Z,15.03
2019-01-17T20:37:59.354Z,17.43
2019-01-17T20:40:28.016Z,16.63
2019-01-17T20:42:56.626Z,20.70
2019-01-17T20:45:25.308Z,15.90
2019-01-17T20:47:54.003Z,15.90
2019-01-17T20:50:25.341Z,18.23
2019-01-17T20:52:53.982Z,24.43
2019-01-17T20:55:22.650Z,18.73
2019-01-17T20:57:51.266Z,22.10
2019-01-17T21:00:23.191Z,23.80
2019-01-17T21:02:51.874Z,23.47
2019-01-17T21:05:20.837Z,22.23
2019-01-17T21:07:49.395Z,23.87
2019-01-17T21:10:18.555Z,24.70
2019-01-17T21:12:47.237Z,25.10
2019-01-17T21:15:16.031Z,24.43
2019-01-17T21:17:44.620Z,24.80
2019-01-17T21:20:14.218Z,21.20
2019-01-17T21:22:42.767Z,23.17
2019-01-17T21:25:19.153Z,23.80
2019-01-17T21:27:47.696Z,21.93
2019-01-17T21:30:21.794Z,21.13
2019-01-17T21:32:50.305Z,17.43
2019-01-17T21:35:19.012Z,19.43
2019-01-17T21:37:47.652Z,17.27
2019-01-17T21:40:18.243Z,15.83
2019-01-17T21:42:46.745Z,16.97
2019-01-17T21:45:16.847Z,16.13
2019-01-17T21:47:45.304Z,19.50
2019-01-17T21:50:19.615Z,18.90
2019-01-17T21:52:48.270Z,17.27
2019-01-17T21:55:16.880Z,17.40
2019-01-17T21:57:45.405Z,15.93
2019-01-17T22:00:19.917Z,14.77
2019-01-17T22:02:48.521Z,12.47
2019-01-17T22:05:17.350Z,10.23
2019-01-17T22:07:46.031Z,6.20
2019-01-17T22:10:17.341Z,3.40
2019-01-17T22:12:46.136Z,3.40
2019-01-17T22:15:20.958Z,2.83
2019-01-17T22:17:49.558Z,5.07
2019-01-17T22:20:18.533Z,3.30
2019-01-17T22:22:47.625Z,3.57
2019-01-17T22:25:18.005Z,3.93
2019-01-17T22:27:47.929Z,3.50
2019-01-17T22:30:27.994Z,4.93
2019-01-17T22:32:56.619Z,10.40
2019-01-17T22:35:25.199Z,7.67
2019-01-17T22:37:53.709Z,7.80
2019-01-17T22:40:22.324Z,10.73
2019-01-17T22:42:50.845Z,9.27
2019-01-17T22:45:27.554Z,9.00
2019-01-17T22:47:56.000Z,8.83
2019-01-17T22:50:24.510Z,12.87
2019-01-17T22:52:53.066Z,12.90
2019-01-17T22:55:21.851Z,11.10
2019-01-17T22:57:50.325Z,10.80
2019-01-17T23:00:26.320Z,12.27
2019-01-17T23:02:54.845Z,16.43
2019-01-17T23:05:23.289Z,12.60
2019-01-17T23:07:51.764Z,12.37
2019-01-17T23:10:20.277Z,10.80
2019-01-17T23:12:48.721Z,12.23
2019-01-17T23:15:17.268Z,12.73
2019-01-17T23:17:45.784Z,13.07
2019-01-17T23:20:14.369Z,12.43
2019-01-17T23:22:42.846Z,11.77
2019-01-17T23:25:12.364Z,11.87
2019-01-17T23:27:40.818Z,15.43
2019-01-17T23:30:12.390Z,17.07
2019-01-17T23:32:40.980Z,14.03
2019-01-17T23:35:09.558Z,13.67
2019-01-17T23:37:38.105Z,12.37
2019-01-17T23:40:09.564Z,12.23
2019-01-17T23:42:38.013Z,13.63
2019-01-17T23:45:08.526Z,12.10
2019-01-17T23:47:36.976Z,17.33
2019-01-17T23:50:08.368Z,18.17
2019-01-17T23:52:36.989Z,12.30
2019-01-17T23:55:06.680Z,13.73
2019-01-17T23:57:35.909Z,11.73
